sensor_id;sensor_type;location;lat;lon;timestamp;P1;durP1;ratioP1;P2;durP2;ratioP2
9563;SDS011;4820;50.870;4.702;2022-08-21T00:01:21;5.50;;;3.13;;
9563;SDS011;4820;50.870;4.702;2022-08-21T00:03:51;4.45;;;2.88;;
9563;SDS011;4820;50.870;4.702;2022-08-21T00:06:18;7.38;;;3.20;;
9563;SDS011;4820;50.870;4.702;2022-08-21T00:08:44;5.43;;;3.00;;
9563;SDS011;4820;50.870;4.702;2022-08-21T00:11:12;3.35;;;2.75;;
9563;SDS011;4820;50.870;4.702;2022-08-21T00:13:40;4.22;;;2.90;;
9563;SDS011;4820;50.870;4.702;2022-08-21T00:16:06;7.63;;;2.95;;
9563;SDS011;4820;50.870;4.702;2022-08-21T00:18:32;5.10;;;3.00;;
9563;SDS011;4820;50.870;4.702;2022-08-21T00:20:58;4.15;;;3.10;;
9563;SDS011;4820;50.870;4.702;2022-08-21T00:23:24;5.85;;;3.13;;
9563;SDS011;4820;50.870;4.702;2022-08-21T00:25:51;4.68;;;2.97;;
9563;SDS011;4820;50.870;4.702;2022-08-21T00:28:17;3.50;;;2.65;;
9563;SDS011;4820;50.870;4.702;2022-08-21T00:30:44;4.82;;;2.95;;
9563;SDS011;4820;50.870;4.702;2022-08-21T00:33:10;4.72;;;2.90;;
9563;SDS011;4820;50.870;4.702;2022-08-21T00:35:37;5.90;;;3.15;;
9563;SDS011;4820;50.870;4.702;2022-08-21T00:38:06;7.45;;;3.00;;
9563;SDS011;4820;50.870;4.702;2022-08-21T00:40:41;5.70;;;3.22;;
9563;SDS011;4820;50.870;4.702;2022-08-21T00:43:17;4.75;;;2.78;;
9563;SDS011;4820;50.870;4.702;2022-08-21T00:45:47;7.70;;;3.28;;
9563;SDS011;4820;50.870;4.702;2022-08-21T00:48:15;4.88;;;2.85;;
9563;SDS011;4820;50.870;4.702;2022-08-21T00:50:43;5.55;;;3.30;;
9563;SDS011;4820;50.870;4.702;2022-08-21T00:53:14;4.88;;;2.92;;
9563;SDS011;4820;50.870;4.702;2022-08-21T00:55:41;6.20;;;3.47;;
9563;SDS011;4820;50.870;4.702;2022-08-21T00:58:07;5.97;;;2.83;;
9563;SDS011;4820;50.870;4.702;2022-08-21T01:00:39;4.40;;;2.78;;
9563;SDS011;4820;50.870;4.702;2022-08-21T01:03:07;5.13;;;2.88;;
9563;SDS011;4820;50.870;4.702;2022-08-21T01:05:36;4.13;;;3.00;;
9563;SDS011;4820;50.870;4.702;2022-08-21T01:08:03;4.50;;;3.05;;
9563;SDS011;4820;50.870;4.702;2022-08-21T01:10:33;5.55;;;2.90;;
9563;SDS011;4820;50.870;4.702;2022-08-21T01:13:00;4.60;;;3.10;;
9563;SDS011;4820;50.870;4.702;2022-08-21T01:15:30;4.75;;;3.10;;
9563;SDS011;4820;50.870;4.702;2022-08-21T01:17:59;4.32;;;2.80;;
9563;SDS011;4820;50.870;4.702;2022-08-21T01:20:26;4.45;;;2.90;;
9563;SDS011;4820;50.870;4.702;2022-08-21T01:22:52;5.90;;;2.90;;
9563;SDS011;4820;50.870;4.702;2022-08-21T01:25:18;5.30;;;3.22;;
9563;SDS011;4820;50.870;4.702;2022-08-21T01:27:47;8.40;;;3.17;;
9563;SDS011;4820;50.870;4.702;2022-08-21T01:30:16;6.72;;;2.75;;
9563;SDS011;4820;50.870;4.702;2022-08-21T01:32:46;5.53;;;2.75;;
9563;SDS011;4820;50.870;4.702;2022-08-21T01:35:14;5.97;;;3.20;;
9563;SDS011;4820;50.870;4.702;2022-08-21T01:37:41;8.10;;;3.10;;
9563;SDS011;4820;50.870;4.702;2022-08-21T01:40:07;7.28;;;3.03;;
9563;SDS011;4820;50.870;4.702;2022-08-21T01:42:34;5.47;;;2.83;;
9563;SDS011;4820;50.870;4.702;2022-08-21T01:45:00;4.95;;;3.22;;
9563;SDS011;4820;50.870;4.702;2022-08-21T01:47:26;4.70;;;3.17;;
9563;SDS011;4820;50.870;4.702;2022-08-21T01:49:52;4.55;;;2.92;;
9563;SDS011;4820;50.870;4.702;2022-08-21T01:52:18;5.97;;;3.28;;
9563;SDS011;4820;50.870;4.702;2022-08-21T01:54:45;4.93;;;3.00;;
9563;SDS011;4820;50.870;4.702;2022-08-21T01:57:11;4.63;;;2.70;;
9563;SDS011;4820;50.870;4.702;2022-08-21T01:59:38;4.82;;;3.10;;
9563;SDS011;4820;50.870;4.702;2022-08-21T02:02:04;4.88;;;2.85;;
9563;SDS011;4820;50.870;4.702;2022-08-21T02:04:31;5.10;;;2.90;;
9563;SDS011;4820;50.870;4.702;2022-08-21T02:06:57;6.68;;;3.22;;
9563;SDS011;4820;50.870;4.702;2022-08-21T02:09:25;6.38;;;3.03;;
9563;SDS011;4820;50.870;4.702;2022-08-21T02:11:51;4.97;;;2.90;;
9563;SDS011;4820;50.870;4.702;2022-08-21T02:14:17;4.35;;;2.80;;
9563;SDS011;4820;50.870;4.702;2022-08-21T02:16:43;4.25;;;2.85;;
9563;SDS011;4820;50.870;4.702;2022-08-21T02:19:10;4.13;;;2.80;;
9563;SDS011;4820;50.870;4.702;2022-08-21T02:21:36;5.15;;;2.92;;
9563;SDS011;4820;50.870;4.702;2022-08-21T02:24:05;4.28;;;2.95;;
9563;SDS011;4820;50.870;4.702;2022-08-21T02:26:31;5.03;;;2.97;;
9563;SDS011;4820;50.870;4.702;2022-08-21T02:28:57;4.00;;;2.92;;
9563;SDS011;4820;50.870;4.702;2022-08-21T02:31:23;4.47;;;2.67;;
9563;SDS011;4820;50.870;4.702;2022-08-21T02:33:49;4.88;;;2.67;;
9563;SDS011;4820;50.870;4.702;2022-08-21T02:36:15;6.05;;;3.20;;
9563;SDS011;4820;50.870;4.702;2022-08-21T02:38:42;3.65;;;2.65;;
9563;SDS011;4820;50.870;4.702;2022-08-21T02:41:12;4.30;;;2.72;;
9563;SDS011;4820;50.870;4.702;2022-08-21T02:43:40;5.20;;;2.92;;
9563;SDS011;4820;50.870;4.702;2022-08-21T02:46:09;6.95;;;3.28;;
9563;SDS011;4820;50.870;4.702;2022-08-21T02:48:35;5.38;;;2.97;;
9563;SDS011;4820;50.870;4.702;2022-08-21T02:51:08;5.47;;;2.72;;
9563;SDS011;4820;50.870;4.702;2022-08-21T02:53:41;4.97;;;3.00;;
9563;SDS011;4820;50.870;4.702;2022-08-21T02:56:09;3.97;;;2.97;;
9563;SDS011;4820;50.870;4.702;2022-08-21T02:58:42;6.38;;;3.17;;
9563;SDS011;4820;50.870;4.702;2022-08-21T03:01:13;5.85;;;3.22;;
9563;SDS011;4820;50.870;4.702;2022-08-21T03:03:40;3.95;;;2.80;;
9563;SDS011;4820;50.870;4.702;2022-08-21T03:06:10;5.30;;;2.70;;
9563;SDS011;4820;50.870;4.702;2022-08-21T03:08:37;3.97;;;3.08;;
9563;SDS011;4820;50.870;4.702;2022-08-21T03:11:04;5.72;;;2.88;;
9563;SDS011;4820;50.870;4.702;2022-08-21T03:13:31;5.65;;;3.00;;
9563;SDS011;4820;50.870;4.702;2022-08-21T03:15:57;6.15;;;3.28;;
9563;SDS011;4820;50.870;4.702;2022-08-21T03:18:23;5.05;;;2.92;;
9563;SDS011;4820;50.870;4.702;2022-08-21T03:20:49;8.55;;;3.78;;
9563;SDS011;4820;50.870;4.702;2022-08-21T03:23:15;4.05;;;3.05;;
9563;SDS011;4820;50.870;4.702;2022-08-21T03:25:43;6.80;;;3.45;;
9563;SDS011;4820;50.870;4.702;2022-08-21T03:28:11;6.93;;;3.05;;
9563;SDS011;4820;50.870;4.702;2022-08-21T03:30:42;4.20;;;2.88;;
9563;SDS011;4820;50.870;4.702;2022-08-21T03:33:09;5.60;;;2.78;;
9563;SDS011;4820;50.870;4.702;2022-08-21T03:35:35;5.40;;;3.28;;
9563;SDS011;4820;50.870;4.702;2022-08-21T03:38:01;4.45;;;2.83;;
9563;SDS011;4820;50.870;4.702;2022-08-21T03:40:28;7.07;;;2.78;;
9563;SDS011;4820;50.870;4.702;2022-08-21T03:42:56;4.10;;;2.95;;
9563;SDS011;4820;50.870;4.702;2022-08-21T03:45:22;5.10;;;2.83;;
9563;SDS011;4820;50.870;4.702;2022-08-21T03:47:52;5.03;;;2.95;;
9563;SDS011;4820;50.870;4.702;2022-08-21T03:50:19;4.82;;;2.72;;
9563;SDS011;4820;50.870;4.702;2022-08-21T03:52:44;6.07;;;2.90;;
9563;SDS011;4820;50.870;4.702;2022-08-21T03:55:10;3.85;;;2.67;;
9563;SDS011;4820;50.870;4.702;2022-08-21T03:57:35;4.40;;;2.95;;
9563;SDS011;4820;50.870;4.702;2022-08-21T04:00:03;5.35;;;3.10;;
9563;SDS011;4820;50.870;4.702;2022-08-21T04:02:29;4.18;;;2.70;;
9563;SDS011;4820;50.870;4.702;2022-08-21T04:04:55;5.50;;;3.10;;
9563;SDS011;4820;50.870;4.702;2022-08-21T04:07:21;4.50;;;2.80;;
9563;SDS011;4820;50.870;4.702;2022-08-21T04:09:46;7.90;;;3.55;;
9563;SDS011;4820;50.870;4.702;2022-08-21T04:12:12;5.63;;;3.20;;
9563;SDS011;4820;50.870;4.702;2022-08-21T04:14:40;6.18;;;3.33;;
9563;SDS011;4820;50.870;4.702;2022-08-21T04:17:06;5.13;;;3.10;;
9563;SDS011;4820;50.870;4.702;2022-08-21T04:19:32;5.45;;;2.97;;
9563;SDS011;4820;50.870;4.702;2022-08-21T04:21:58;3.90;;;2.70;;
9563;SDS011;4820;50.870;4.702;2022-08-21T04:24:23;4.45;;;2.85;;
9563;SDS011;4820;50.870;4.702;2022-08-21T04:26:49;5.10;;;2.70;;
9563;SDS011;4820;50.870;4.702;2022-08-21T04:29:15;6.47;;;2.92;;
9563;SDS011;4820;50.870;4.702;2022-08-21T04:31:40;5.28;;;3.05;;
9563;SDS011;4820;50.870;4.702;2022-08-21T04:34:08;6.05;;;2.97;;
9563;SDS011;4820;50.870;4.702;2022-08-21T04:36:34;6.20;;;3.17;;
9563;SDS011;4820;50.870;4.702;2022-08-21T04:39:00;5.53;;;3.25;;
9563;SDS011;4820;50.870;4.702;2022-08-21T04:41:28;3.80;;;2.50;;
9563;SDS011;4820;50.870;4.702;2022-08-21T04:43:54;4.60;;;3.00;;
9563;SDS011;4820;50.870;4.702;2022-08-21T04:46:21;3.80;;;2.63;;
9563;SDS011;4820;50.870;4.702;2022-08-21T04:48:47;5.85;;;2.70;;
9563;SDS011;4820;50.870;4.702;2022-08-21T04:51:22;3.33;;;2.50;;
9563;SDS011;4820;50.870;4.702;2022-08-21T04:53:58;3.97;;;2.25;;
9563;SDS011;4820;50.870;4.702;2022-08-21T04:56:42;5.45;;;2.60;;
9563;SDS011;4820;50.870;4.702;2022-08-21T04:59:15;4.97;;;2.70;;
9563;SDS011;4820;50.870;4.702;2022-08-21T05:01:45;4.25;;;2.33;;
9563;SDS011;4820;50.870;4.702;2022-08-21T05:04:13;4.03;;;2.22;;
9563;SDS011;4820;50.870;4.702;2022-08-21T05:06:42;4.05;;;2.58;;
9563;SDS011;4820;50.870;4.702;2022-08-21T05:09:11;4.40;;;2.55;;
9563;SDS011;4820;50.870;4.702;2022-08-21T05:11:39;4.53;;;2.60;;
9563;SDS011;4820;50.870;4.702;2022-08-21T05:14:06;3.53;;;2.33;;
9563;SDS011;4820;50.870;4.702;2022-08-21T05:16:32;5.25;;;2.55;;
9563;SDS011;4820;50.870;4.702;2022-08-21T05:18:58;5.03;;;2.70;;
9563;SDS011;4820;50.870;4.702;2022-08-21T05:21:24;4.28;;;2.40;;
9563;SDS011;4820;50.870;4.702;2022-08-21T05:23:50;4.68;;;2.85;;
9563;SDS011;4820;50.870;4.702;2022-08-21T05:26:18;4.72;;;2.60;;
9563;SDS011;4820;50.870;4.702;2022-08-21T05:28:45;5.15;;;2.70;;
9563;SDS011;4820;50.870;4.702;2022-08-21T05:31:11;5.00;;;2.47;;
9563;SDS011;4820;50.870;4.702;2022-08-21T05:33:37;5.78;;;2.92;;
9563;SDS011;4820;50.870;4.702;2022-08-21T05:36:03;3.85;;;2.28;;
9563;SDS011;4820;50.870;4.702;2022-08-21T05:38:28;6.07;;;2.78;;
9563;SDS011;4820;50.870;4.702;2022-08-21T05:40:54;8.13;;;3.13;;
9563;SDS011;4820;50.870;4.702;2022-08-21T05:43:20;5.22;;;2.70;;
9563;SDS011;4820;50.870;4.702;2022-08-21T05:45:47;4.70;;;2.70;;
9563;SDS011;4820;50.870;4.702;2022-08-21T05:48:14;4.55;;;2.45;;
9563;SDS011;4820;50.870;4.702;2022-08-21T05:50:49;4.32;;;2.60;;
9563;SDS011;4820;50.870;4.702;2022-08-21T05:53:17;4.47;;;2.67;;
9563;SDS011;4820;50.870;4.702;2022-08-21T05:55:45;4.15;;;2.60;;
9563;SDS011;4820;50.870;4.702;2022-08-21T05:58:15;4.80;;;2.88;;
9563;SDS011;4820;50.870;4.702;2022-08-21T06:00:45;4.95;;;2.80;;
9563;SDS011;4820;50.870;4.702;2022-08-21T06:03:22;5.57;;;2.55;;
9563;SDS011;4820;50.870;4.702;2022-08-21T06:05:50;5.88;;;2.97;;
9563;SDS011;4820;50.870;4.702;2022-08-21T06:08:16;4.22;;;2.50;;
9563;SDS011;4820;50.870;4.702;2022-08-21T06:10:43;4.68;;;2.53;;
9563;SDS011;4820;50.870;4.702;2022-08-21T06:13:10;5.70;;;2.42;;
9563;SDS011;4820;50.870;4.702;2022-08-21T06:15:36;4.93;;;2.90;;
9563;SDS011;4820;50.870;4.702;2022-08-21T06:18:02;4.88;;;2.80;;
9563;SDS011;4820;50.870;4.702;2022-08-21T06:20:28;6.72;;;2.97;;
9563;SDS011;4820;50.870;4.702;2022-08-21T06:22:54;4.50;;;2.75;;
9563;SDS011;4820;50.870;4.702;2022-08-21T06:25:20;5.30;;;2.97;;
9563;SDS011;4820;50.870;4.702;2022-08-21T06:27:46;6.53;;;2.80;;
9563;SDS011;4820;50.870;4.702;2022-08-21T06:30:11;9.10;;;3.05;;
9563;SDS011;4820;50.870;4.702;2022-08-21T06:32:38;8.13;;;3.17;;
9563;SDS011;4820;50.870;4.702;2022-08-21T06:35:04;8.02;;;3.15;;
9563;SDS011;4820;50.870;4.702;2022-08-21T06:37:30;6.43;;;2.90;;
9563;SDS011;4820;50.870;4.702;2022-08-21T06:39:58;5.32;;;2.90;;
9563;SDS011;4820;50.870;4.702;2022-08-21T06:42:23;8.35;;;2.92;;
9563;SDS011;4820;50.870;4.702;2022-08-21T06:44:49;6.13;;;2.67;;
9563;SDS011;4820;50.870;4.702;2022-08-21T06:47:15;7.53;;;3.00;;
9563;SDS011;4820;50.870;4.702;2022-08-21T06:49:41;7.45;;;2.70;;
9563;SDS011;4820;50.870;4.702;2022-08-21T06:52:11;4.90;;;2.72;;
9563;SDS011;4820;50.870;4.702;2022-08-21T06:54:40;4.78;;;2.38;;
9563;SDS011;4820;50.870;4.702;2022-08-21T06:57:06;5.13;;;2.60;;
9563;SDS011;4820;50.870;4.702;2022-08-21T06:59:33;10.60;;;2.40;;
9563;SDS011;4820;50.870;4.702;2022-08-21T07:01:59;5.70;;;2.70;;
9563;SDS011;4820;50.870;4.702;2022-08-21T07:04:25;4.35;;;2.40;;
9563;SDS011;4820;50.870;4.702;2022-08-21T07:06:51;10.98;;;2.88;;
9563;SDS011;4820;50.870;4.702;2022-08-21T07:09:17;9.00;;;2.60;;
9563;SDS011;4820;50.870;4.702;2022-08-21T07:11:43;6.18;;;2.25;;
9563;SDS011;4820;50.870;4.702;2022-08-21T07:14:13;6.80;;;2.72;;
9563;SDS011;4820;50.870;4.702;2022-08-21T07:16:38;12.20;;;3.13;;
9563;SDS011;4820;50.870;4.702;2022-08-21T07:19:04;5.82;;;2.70;;
9563;SDS011;4820;50.870;4.702;2022-08-21T07:21:30;5.38;;;2.83;;
9563;SDS011;4820;50.870;4.702;2022-08-21T07:23:55;5.32;;;2.50;;
9563;SDS011;4820;50.870;4.702;2022-08-21T07:26:23;6.47;;;2.55;;
9563;SDS011;4820;50.870;4.702;2022-08-21T07:28:49;5.22;;;2.78;;
9563;SDS011;4820;50.870;4.702;2022-08-21T07:31:16;6.15;;;2.42;;
9563;SDS011;4820;50.870;4.702;2022-08-21T07:33:44;6.57;;;2.50;;
9563;SDS011;4820;50.870;4.702;2022-08-21T07:36:10;5.40;;;2.65;;
9563;SDS011;4820;50.870;4.702;2022-08-21T07:38:36;6.93;;;2.30;;
9563;SDS011;4820;50.870;4.702;2022-08-21T07:41:18;6.18;;;2.25;;
9563;SDS011;4820;50.870;4.702;2022-08-21T07:43:46;7.53;;;2.47;;
9563;SDS011;4820;50.870;4.702;2022-08-21T07:46:13;4.93;;;2.30;;
9563;SDS011;4820;50.870;4.702;2022-08-21T07:48:39;9.38;;;2.13;;
9563;SDS011;4820;50.870;4.702;2022-08-21T07:51:07;8.05;;;2.30;;
9563;SDS011;4820;50.870;4.702;2022-08-21T07:53:35;5.10;;;2.13;;
9563;SDS011;4820;50.870;4.702;2022-08-21T07:56:02;5.70;;;2.50;;
9563;SDS011;4820;50.870;4.702;2022-08-21T07:58:29;5.80;;;2.28;;
9563;SDS011;4820;50.870;4.702;2022-08-21T08:00:55;6.43;;;2.42;;
9563;SDS011;4820;50.870;4.702;2022-08-21T08:03:21;4.95;;;2.00;;
9563;SDS011;4820;50.870;4.702;2022-08-21T08:05:48;7.55;;;2.78;;
9563;SDS011;4820;50.870;4.702;2022-08-21T08:08:13;5.72;;;2.50;;
9563;SDS011;4820;50.870;4.702;2022-08-21T08:10:39;5.32;;;2.40;;
9563;SDS011;4820;50.870;4.702;2022-08-21T08:13:07;6.97;;;2.55;;
9563;SDS011;4820;50.870;4.702;2022-08-21T08:15:32;4.30;;;2.03;;
9563;SDS011;4820;50.870;4.702;2022-08-21T08:17:58;9.45;;;2.10;;
9563;SDS011;4820;50.870;4.702;2022-08-21T08:20:25;6.38;;;2.30;;
9563;SDS011;4820;50.870;4.702;2022-08-21T08:22:52;5.03;;;1.60;;
9563;SDS011;4820;50.870;4.702;2022-08-21T08:25:20;7.35;;;2.38;;
9563;SDS011;4820;50.870;4.702;2022-08-21T08:27:48;7.10;;;2.10;;
9563;SDS011;4820;50.870;4.702;2022-08-21T08:30:15;6.15;;;1.60;;
9563;SDS011;4820;50.870;4.702;2022-08-21T08:32:43;5.78;;;2.03;;
9563;SDS011;4820;50.870;4.702;2022-08-21T08:35:09;5.82;;;1.98;;
9563;SDS011;4820;50.870;4.702;2022-08-21T08:37:36;6.82;;;2.22;;
9563;SDS011;4820;50.870;4.702;2022-08-21T08:40:05;5.45;;;2.00;;
9563;SDS011;4820;50.870;4.702;2022-08-21T08:42:35;6.90;;;2.13;;
9563;SDS011;4820;50.870;4.702;2022-08-21T08:45:04;5.55;;;2.38;;
9563;SDS011;4820;50.870;4.702;2022-08-21T08:47:42;9.00;;;2.17;;
9563;SDS011;4820;50.870;4.702;2022-08-21T08:53:08;7.13;;;2.10;;
9563;SDS011;4820;50.870;4.702;2022-08-21T08:55:40;7.43;;;2.53;;
9563;SDS011;4820;50.870;4.702;2022-08-21T08:58:09;4.15;;;2.05;;
9563;SDS011;4820;50.870;4.702;2022-08-21T09:00:42;7.15;;;2.30;;
9563;SDS011;4820;50.870;4.702;2022-08-21T09:03:09;7.25;;;2.20;;
9563;SDS011;4820;50.870;4.702;2022-08-21T09:05:40;7.10;;;2.35;;
9563;SDS011;4820;50.870;4.702;2022-08-21T09:21:58;5.68;;;2.00;;
9563;SDS011;4820;50.870;4.702;2022-08-21T09:27:12;7.47;;;2.33;;
9563;SDS011;4820;50.870;4.702;2022-08-21T09:29:43;6.82;;;2.22;;
9563;SDS011;4820;50.870;4.702;2022-08-21T09:32:18;5.85;;;2.17;;
9563;SDS011;4820;50.870;4.702;2022-08-21T09:35:04;5.13;;;2.00;;
9563;SDS011;4820;50.870;4.702;2022-08-21T09:37:31;5.85;;;2.13;;
9563;SDS011;4820;50.870;4.702;2022-08-21T09:40:00;6.28;;;2.47;;
9563;SDS011;4820;50.870;4.702;2022-08-21T09:42:29;8.45;;;2.40;;
9563;SDS011;4820;50.870;4.702;2022-08-21T09:45:16;5.25;;;2.20;;
9563;SDS011;4820;50.870;4.702;2022-08-21T09:47:44;6.18;;;2.10;;
9563;SDS011;4820;50.870;4.702;2022-08-21T09:50:16;4.57;;;1.90;;
9563;SDS011;4820;50.870;4.702;2022-08-21T09:52:49;5.40;;;1.80;;
9563;SDS011;4820;50.870;4.702;2022-08-21T09:55:30;6.43;;;2.30;;
9563;SDS011;4820;50.870;4.702;2022-08-21T09:58:29;4.82;;;1.95;;
9563;SDS011;4820;50.870;4.702;2022-08-21T10:01:00;5.95;;;2.17;;
9563;SDS011;4820;50.870;4.702;2022-08-21T10:03:28;5.80;;;2.28;;
9563;SDS011;4820;50.870;4.702;2022-08-21T10:08:24;7.35;;;2.30;;
9563;SDS011;4820;50.870;4.702;2022-08-21T10:10:56;6.13;;;2.17;;
9563;SDS011;4820;50.870;4.702;2022-08-21T10:25:25;6.53;;;2.20;;
9563;SDS011;4820;50.870;4.702;2022-08-21T10:30:28;6.82;;;2.25;;
9563;SDS011;4820;50.870;4.702;2022-08-21T10:33:17;5.20;;;2.17;;
9563;SDS011;4820;50.870;4.702;2022-08-21T10:49:39;6.82;;;2.30;;
9563;SDS011;4820;50.870;4.702;2022-08-21T10:55:20;5.88;;;2.25;;
9563;SDS011;4820;50.870;4.702;2022-08-21T11:00:21;6.95;;;2.35;;
9563;SDS011;4820;50.870;4.702;2022-08-21T11:02:56;10.02;;;2.92;;
9563;SDS011;4820;50.870;4.702;2022-08-21T11:08:06;9.70;;;2.90;;
9563;SDS011;4820;50.870;4.702;2022-08-21T11:19:21;8.20;;;2.50;;
9563;SDS011;4820;50.870;4.702;2022-08-21T11:27:45;9.20;;;2.70;;
9563;SDS011;4820;50.870;4.702;2022-08-21T11:30:15;8.60;;;2.30;;
9563;SDS011;4820;50.870;4.702;2022-08-21T11:32:49;6.78;;;2.25;;
9563;SDS011;4820;50.870;4.702;2022-08-21T11:35:39;6.25;;;2.50;;
9563;SDS011;4820;50.870;4.702;2022-08-21T11:43:46;6.75;;;2.65;;
9563;SDS011;4820;50.870;4.702;2022-08-21T11:49:46;7.47;;;2.70;;
9563;SDS011;4820;50.870;4.702;2022-08-21T11:55:40;7.95;;;2.80;;
9563;SDS011;4820;50.870;4.702;2022-08-21T11:58:17;8.80;;;2.20;;
9563;SDS011;4820;50.870;4.702;2022-08-21T12:01:08;7.18;;;2.65;;
9563;SDS011;4820;50.870;4.702;2022-08-21T12:03:40;7.93;;;2.67;;
9563;SDS011;4820;50.870;4.702;2022-08-21T12:06:26;7.50;;;2.53;;
9563;SDS011;4820;50.870;4.702;2022-08-21T12:11:50;7.25;;;2.40;;
9563;SDS011;4820;50.870;4.702;2022-08-21T12:17:38;7.68;;;2.50;;
9563;SDS011;4820;50.870;4.702;2022-08-21T12:20:23;8.27;;;2.85;;
9563;SDS011;4820;50.870;4.702;2022-08-21T12:25:42;6.57;;;2.38;;
9563;SDS011;4820;50.870;4.702;2022-08-21T12:28:12;8.20;;;3.10;;
9563;SDS011;4820;50.870;4.702;2022-08-21T12:30:41;8.13;;;2.85;;
9563;SDS011;4820;50.870;4.702;2022-08-21T12:38:46;5.68;;;2.47;;
9563;SDS011;4820;50.870;4.702;2022-08-21T12:41:17;7.80;;;2.45;;
9563;SDS011;4820;50.870;4.702;2022-08-21T12:43:48;6.18;;;2.53;;
9563;SDS011;4820;50.870;4.702;2022-08-21T12:46:25;6.00;;;2.45;;
9563;SDS011;4820;50.870;4.702;2022-08-21T12:49:26;5.35;;;2.10;;
9563;SDS011;4820;50.870;4.702;2022-08-21T12:54:54;8.13;;;2.45;;
9563;SDS011;4820;50.870;4.702;2022-08-21T12:57:22;5.68;;;2.55;;
9563;SDS011;4820;50.870;4.702;2022-08-21T13:02:36;7.45;;;2.30;;
9563;SDS011;4820;50.870;4.702;2022-08-21T13:05:08;6.93;;;2.30;;
9563;SDS011;4820;50.870;4.702;2022-08-21T13:07:42;8.80;;;2.53;;
9563;SDS011;4820;50.870;4.702;2022-08-21T13:10:16;5.13;;;2.20;;
9563;SDS011;4820;50.870;4.702;2022-08-21T13:12:46;5.63;;;2.22;;
9563;SDS011;4820;50.870;4.702;2022-08-21T13:15:15;6.10;;;2.50;;
9563;SDS011;4820;50.870;4.702;2022-08-21T13:17:51;5.18;;;2.33;;
9563;SDS011;4820;50.870;4.702;2022-08-21T13:20:23;7.95;;;2.90;;
9563;SDS011;4820;50.870;4.702;2022-08-21T13:22:52;5.32;;;2.40;;
9563;SDS011;4820;50.870;4.702;2022-08-21T13:25:21;7.35;;;2.55;;
9563;SDS011;4820;50.870;4.702;2022-08-21T13:28:03;6.03;;;2.20;;
9563;SDS011;4820;50.870;4.702;2022-08-21T13:31:10;5.20;;;2.30;;
9563;SDS011;4820;50.870;4.702;2022-08-21T13:33:31;4.65;;;2.10;;
9563;SDS011;4820;50.870;4.702;2022-08-21T13:41:21;6.90;;;2.55;;
9563;SDS011;4820;50.870;4.702;2022-08-21T13:43:57;7.93;;;2.20;;
9563;SDS011;4820;50.870;4.702;2022-08-21T13:46:24;4.88;;;2.33;;
9563;SDS011;4820;50.870;4.702;2022-08-21T13:48:52;6.15;;;2.28;;
9563;SDS011;4820;50.870;4.702;2022-08-21T13:51:21;5.88;;;2.00;;
9563;SDS011;4820;50.870;4.702;2022-08-21T13:53:49;5.68;;;2.20;;
9563;SDS011;4820;50.870;4.702;2022-08-21T13:56:40;5.25;;;2.30;;
9563;SDS011;4820;50.870;4.702;2022-08-21T13:59:08;8.65;;;2.30;;
9563;SDS011;4820;50.870;4.702;2022-08-21T14:07:30;6.80;;;2.30;;
9563;SDS011;4820;50.870;4.702;2022-08-21T14:10:11;6.15;;;2.60;;
9563;SDS011;4820;50.870;4.702;2022-08-21T14:12:45;7.28;;;2.67;;
9563;SDS011;4820;50.870;4.702;2022-08-21T14:15:14;4.90;;;2.10;;
9563;SDS011;4820;50.870;4.702;2022-08-21T14:17:42;5.35;;;2.05;;
9563;SDS011;4820;50.870;4.702;2022-08-21T14:20:12;4.55;;;2.17;;
9563;SDS011;4820;50.870;4.702;2022-08-21T14:22:52;6.90;;;2.38;;
9563;SDS011;4820;50.870;4.702;2022-08-21T14:27:55;5.53;;;2.42;;
9563;SDS011;4820;50.870;4.702;2022-08-21T14:30:34;5.93;;;2.22;;
9563;SDS011;4820;50.870;4.702;2022-08-21T14:33:08;6.03;;;2.42;;
9563;SDS011;4820;50.870;4.702;2022-08-21T14:35:36;5.47;;;2.38;;
9563;SDS011;4820;50.870;4.702;2022-08-21T14:38:02;7.55;;;2.30;;
9563;SDS011;4820;50.870;4.702;2022-08-21T14:40:36;5.50;;;2.13;;
9563;SDS011;4820;50.870;4.702;2022-08-21T14:43:03;4.60;;;2.28;;
9563;SDS011;4820;50.870;4.702;2022-08-21T14:45:30;5.38;;;2.10;;
9563;SDS011;4820;50.870;4.702;2022-08-21T14:47:57;4.53;;;1.92;;
9563;SDS011;4820;50.870;4.702;2022-08-21T14:50:24;8.63;;;2.50;;
9563;SDS011;4820;50.870;4.702;2022-08-21T14:52:50;4.28;;;2.10;;
9563;SDS011;4820;50.870;4.702;2022-08-21T14:57:46;5.78;;;2.40;;
9563;SDS011;4820;50.870;4.702;2022-08-21T15:00:15;5.00;;;2.40;;
9563;SDS011;4820;50.870;4.702;2022-08-21T15:02:44;5.28;;;2.13;;
9563;SDS011;4820;50.870;4.702;2022-08-21T15:05:10;5.18;;;2.17;;
9563;SDS011;4820;50.870;4.702;2022-08-21T15:07:36;7.18;;;2.70;;
9563;SDS011;4820;50.870;4.702;2022-08-21T15:10:03;4.90;;;2.30;;
9563;SDS011;4820;50.870;4.702;2022-08-21T15:12:29;4.32;;;2.13;;
9563;SDS011;4820;50.870;4.702;2022-08-21T15:14:56;7.65;;;2.83;;
9563;SDS011;4820;50.870;4.702;2022-08-21T15:17:24;5.30;;;2.03;;
9563;SDS011;4820;50.870;4.702;2022-08-21T15:19:53;8.07;;;2.50;;
9563;SDS011;4820;50.870;4.702;2022-08-21T15:22:18;6.70;;;2.40;;
9563;SDS011;4820;50.870;4.702;2022-08-21T15:24:44;5.13;;;2.45;;
9563;SDS011;4820;50.870;4.702;2022-08-21T15:27:18;7.63;;;2.80;;
9563;SDS011;4820;50.870;4.702;2022-08-21T15:29:48;5.63;;;2.60;;
9563;SDS011;4820;50.870;4.702;2022-08-21T15:32:19;6.40;;;2.50;;
9563;SDS011;4820;50.870;4.702;2022-08-21T15:34:52;7.32;;;2.45;;
9563;SDS011;4820;50.870;4.702;2022-08-21T15:37:18;7.10;;;2.67;;
9563;SDS011;4820;50.870;4.702;2022-08-21T15:39:44;5.57;;;2.58;;
9563;SDS011;4820;50.870;4.702;2022-08-21T15:42:12;7.22;;;2.65;;
9563;SDS011;4820;50.870;4.702;2022-08-21T15:44:39;6.97;;;2.42;;
9563;SDS011;4820;50.870;4.702;2022-08-21T15:47:05;6.88;;;2.50;;
9563;SDS011;4820;50.870;4.702;2022-08-21T15:49:31;8.38;;;2.85;;
9563;SDS011;4820;50.870;4.702;2022-08-21T15:51:57;5.90;;;2.35;;
9563;SDS011;4820;50.870;4.702;2022-08-21T15:54:23;6.35;;;2.78;;
9563;SDS011;4820;50.870;4.702;2022-08-21T15:56:48;4.72;;;2.08;;
9563;SDS011;4820;50.870;4.702;2022-08-21T15:59:17;6.53;;;2.55;;
9563;SDS011;4820;50.870;4.702;2022-08-21T16:01:46;8.73;;;2.33;;
9563;SDS011;4820;50.870;4.702;2022-08-21T16:04:23;5.38;;;2.10;;
9563;SDS011;4820;50.870;4.702;2022-08-21T16:06:50;7.55;;;2.50;;
9563;SDS011;4820;50.870;4.702;2022-08-21T16:09:17;6.57;;;2.55;;
9563;SDS011;4820;50.870;4.702;2022-08-21T16:11:43;8.00;;;2.70;;
9563;SDS011;4820;50.870;4.702;2022-08-21T16:14:12;7.00;;;2.67;;
9563;SDS011;4820;50.870;4.702;2022-08-21T16:16:42;7.28;;;2.75;;
9563;SDS011;4820;50.870;4.702;2022-08-21T16:19:08;6.25;;;2.60;;
9563;SDS011;4820;50.870;4.702;2022-08-21T16:21:35;6.55;;;2.40;;
9563;SDS011;4820;50.870;4.702;2022-08-21T16:24:02;5.97;;;2.65;;
9563;SDS011;4820;50.870;4.702;2022-08-21T16:26:28;5.00;;;2.40;;
9563;SDS011;4820;50.870;4.702;2022-08-21T16:28:56;5.85;;;2.47;;
9563;SDS011;4820;50.870;4.702;2022-08-21T16:31:25;7.93;;;2.80;;
9563;SDS011;4820;50.870;4.702;2022-08-21T16:33:51;4.30;;;2.20;;
9563;SDS011;4820;50.870;4.702;2022-08-21T16:36:19;6.85;;;3.83;;
9563;SDS011;4820;50.870;4.702;2022-08-21T16:38:46;8.52;;;2.70;;
9563;SDS011;4820;50.870;4.702;2022-08-21T16:41:13;8.48;;;2.95;;
9563;SDS011;4820;50.870;4.702;2022-08-21T16:43:43;8.30;;;2.50;;
9563;SDS011;4820;50.870;4.702;2022-08-21T16:46:11;6.65;;;2.47;;
9563;SDS011;4820;50.870;4.702;2022-08-21T16:48:41;5.10;;;2.47;;
9563;SDS011;4820;50.870;4.702;2022-08-21T16:51:10;6.20;;;3.10;;
9563;SDS011;4820;50.870;4.702;2022-08-21T16:53:39;5.35;;;2.72;;
9563;SDS011;4820;50.870;4.702;2022-08-21T16:56:07;7.05;;;2.88;;
9563;SDS011;4820;50.870;4.702;2022-08-21T16:58:34;4.93;;;2.63;;
9563;SDS011;4820;50.870;4.702;2022-08-21T17:01:09;5.75;;;2.70;;
9563;SDS011;4820;50.870;4.702;2022-08-21T17:03:37;8.07;;;2.97;;
9563;SDS011;4820;50.870;4.702;2022-08-21T17:06:07;5.60;;;2.10;;
9563;SDS011;4820;50.870;4.702;2022-08-21T17:08:33;6.85;;;2.78;;
9563;SDS011;4820;50.870;4.702;2022-08-21T17:11:00;6.70;;;2.42;;
9563;SDS011;4820;50.870;4.702;2022-08-21T17:13:27;7.38;;;2.40;;
9563;SDS011;4820;50.870;4.702;2022-08-21T17:18:23;6.95;;;2.42;;
9563;SDS011;4820;50.870;4.702;2022-08-21T17:20:50;4.13;;;2.38;;
9563;SDS011;4820;50.870;4.702;2022-08-21T17:23:16;6.25;;;2.60;;
9563;SDS011;4820;50.870;4.702;2022-08-21T17:25:47;3.40;;;2.20;;
9563;SDS011;4820;50.870;4.702;2022-08-21T17:28:20;6.93;;;2.90;;
9563;SDS011;4820;50.870;4.702;2022-08-21T17:30:48;5.38;;;2.22;;